CheckWX is a tool to help pilots better visualize weather data.  It is not intended as a substitute for an official pre-flight weather briefing.

06:43:50 UTC

PAGY TAF
Skagway Airport
Skagway, Alaska, USA
PAGY 240533Z 2406/2506 04011KT 6SM -SN OVC025 TEMPO 2406/2410 04010G20KT 3SM -SN OVC015 FM241000 04010KT 3SM -SN SCT007 OVC015 FM241600 04010G18KT 2SM -SN BR OVC007 FM242300 04011KT 3SM -SHSN OVC015 AMD LTD TO CLD VIS AND WIND

Jan-24@
06:00 UTC

Jan-24 @ 06:00 UTC

Jan-24@
10:00 UTC

Jan-24 @ 10:00 UTC

PAGY 240533Z 2406/2506 04011KT 6SM -SN OVC025
Wind
  • 040° at 11 KTS
Conditions
Light Snow
Cloud Levels
  • Overcast at 2,500' AGL

Jan-24@
06:00 UTC

Jan-24 @ 06:00 UTC

Jan-24@
10:00 UTC

Jan-24 @ 10:00 UTC

TEMPO 2406/2410 04010G20KT 3SM -SN OVC015

Temporary

Temporary Changes expected for less than half the time period

Wind
  • 040° at 10 KTS
  • {Gusting to 20 KTS
Conditions
Light Snow
Cloud Levels
  • Overcast at 1,500' AGL

Jan-24@
10:00 UTC

Jan-24 @ 10:00 UTC

Jan-24@
16:00 UTC

Jan-24 @ 16:00 UTC

FM241000 04010KT 3SM -SN SCT007 OVC015

From

From Standard forecast or significant change

Wind
  • 040° at 10 KTS
Conditions
Light Snow
Cloud Levels
  • Scattered at 700' AGL
  • Overcast at 1,500' AGL

Jan-24@
16:00 UTC

Jan-24 @ 16:00 UTC

Jan-24@
23:00 UTC

Jan-24 @ 23:00 UTC

FM241600 04010G18KT 2SM -SN BR OVC007

From

From Standard forecast or significant change

Wind
  • 040° at 10 KTS
  • {Gusting to 18 KTS
Conditions
Light Snow, Mist
Cloud Levels
  • Overcast at 700' AGL

Jan-24@
23:00 UTC

Jan-24 @ 23:00 UTC

Jan-25@
06:00 UTC

Jan-25 @ 06:00 UTC

FM242300 04011KT 3SM -SHSN OVC015 AMD LTD TO CLD VIS AND WIND

From

From Standard forecast or significant change

Wind
  • 040° at 11 KTS
Conditions
Light Snow
Cloud Levels
  • Overcast at 1,500' AGL